createdAt,value
2016-09-22T00:00:32.597Z,0
2016-09-22T00:01:32.233Z,0
2016-09-22T00:02:32.026Z,0
2016-09-22T00:03:32.004Z,0
2016-09-22T00:04:31.673Z,0
2016-09-22T00:05:31.681Z,0
2016-09-22T00:06:31.938Z,0
2016-09-22T00:07:31.928Z,0
2016-09-22T00:08:32.133Z,0
2016-09-22T00:09:31.821Z,0
2016-09-22T00:10:31.905Z,0
2016-09-22T00:11:31.962Z,0
2016-09-22T00:12:32.212Z,0
2016-09-22T00:13:31.587Z,0
2016-09-22T00:14:31.558Z,0
2016-09-22T00:15:31.881Z,0
2016-09-22T00:16:31.500Z,0
2016-09-22T00:17:31.801Z,0
2016-09-22T00:18:31.479Z,0
2016-09-22T00:19:31.782Z,0
2016-09-22T00:20:31.468Z,0
2016-09-22T00:21:31.446Z,0
2016-09-22T00:22:31.426Z,0
2016-09-22T00:23:31.424Z,0
2016-09-22T00:24:31.425Z,0
2016-09-22T00:25:31.399Z,0
2016-09-22T00:26:31.391Z,0
2016-09-22T00:27:31.378Z,0
2016-09-22T00:28:31.365Z,0
2016-09-22T00:29:31.355Z,0
2016-09-22T00:30:31.360Z,0
2016-09-22T00:31:31.333Z,0
2016-09-22T00:32:31.680Z,0
2016-09-22T00:33:31.317Z,0
2016-09-22T00:34:31.932Z,0
2016-09-22T00:35:31.285Z,0
2016-09-22T00:36:31.274Z,0
2016-09-22T00:37:31.267Z,0
2016-09-22T00:38:31.444Z,0
2016-09-22T00:39:31.553Z,0
2016-09-22T00:40:31.226Z,0
2016-09-22T00:41:31.523Z,0
2016-09-22T00:42:31.199Z,0
2016-09-22T00:43:31.189Z,0
2016-09-22T00:44:31.177Z,0
2016-09-22T00:45:31.170Z,0
2016-09-22T00:46:31.161Z,0
2016-09-22T00:47:31.145Z,0
2016-09-22T00:48:31.132Z,0
2016-09-22T00:49:31.122Z,0
2016-09-22T00:50:31.417Z,0
2016-09-22T00:51:31.100Z,0
2016-09-22T00:52:31.080Z,0
2016-09-22T00:53:31.079Z,0
2016-09-22T00:54:31.060Z,0
2016-09-22T00:55:31.048Z,0
2016-09-22T00:56:31.038Z,0
2016-09-22T00:57:31.342Z,0
2016-09-22T00:58:31.352Z,0
2016-09-22T00:59:31.005Z,0
2016-09-22T01:00:30.991Z,0
2016-09-22T01:01:30.984Z,0
2016-09-22T01:02:31.288Z,0
2016-09-22T01:03:30.966Z,0
2016-09-22T01:04:30.950Z,0
2016-09-22T01:05:30.947Z,0
2016-09-22T01:06:30.930Z,0
2016-09-22T01:07:30.917Z,0
2016-09-22T01:08:30.900Z,0
2016-09-22T01:09:30.893Z,0
2016-09-22T01:10:31.200Z,0
2016-09-22T01:11:30.863Z,0
2016-09-22T01:12:30.856Z,0
2016-09-22T01:13:30.842Z,0
2016-09-22T01:14:31.138Z,0
2016-09-22T01:15:30.820Z,0
2016-09-22T01:16:30.805Z,0
2016-09-22T01:17:30.795Z,0
2016-09-22T01:18:30.791Z,0
2016-09-22T01:19:30.769Z,0
2016-09-22T01:20:31.073Z,0
2016-09-22T01:21:30.759Z,0
2016-09-22T01:22:31.049Z,0
2016-09-22T01:23:30.727Z,0
2016-09-22T01:24:31.033Z,0
2016-09-22T01:25:30.693Z,0
2016-09-22T01:26:30.685Z,0
2016-09-22T01:27:30.689Z,0
2016-09-22T01:28:30.972Z,0
2016-09-22T01:29:30.651Z,0
2016-09-22T01:30:30.646Z,0
2016-09-22T01:31:30.940Z,0
2016-09-22T01:32:30.931Z,0
2016-09-22T01:33:30.597Z,0
2016-09-22T01:34:30.594Z,0
2016-09-22T01:35:30.584Z,0
2016-09-22T01:36:30.567Z,0
2016-09-22T01:37:30.553Z,0
2016-09-22T01:38:30.545Z,0
2016-09-22T01:39:30.540Z,0
2016-09-22T01:40:30.517Z,0
2016-09-22T01:41:30.509Z,0
2016-09-22T01:42:30.503Z,0
2016-09-22T01:43:30.493Z,0
2016-09-22T01:44:30.791Z,0
2016-09-22T01:45:30.771Z,0
2016-09-22T01:46:30.470Z,0
2016-09-22T01:47:30.764Z,0
2016-09-22T01:48:30.428Z,0
2016-09-22T01:49:30.417Z,0
2016-09-22T01:50:30.406Z,0
2016-09-22T01:51:30.393Z,0
2016-09-22T01:52:30.374Z,0
2016-09-22T01:53:30.379Z,0
2016-09-22T01:54:30.667Z,0
2016-09-22T01:55:30.341Z,0
2016-09-22T01:56:30.326Z,0
2016-09-22T01:57:30.320Z,0
2016-09-22T01:58:30.624Z,0
2016-09-22T01:59:30.291Z,0
2016-09-22T02:00:30.281Z,0
2016-09-22T02:01:30.269Z,0
2016-09-22T02:02:30.258Z,0
2016-09-22T02:03:30.241Z,0
2016-09-22T02:04:30.234Z,0
2016-09-22T02:05:30.222Z,0
2016-09-22T02:06:30.527Z,0
2016-09-22T02:07:30.198Z,0
2016-09-22T02:08:30.185Z,0
2016-09-22T02:09:30.690Z,0
2016-09-22T02:10:30.172Z,0
2016-09-22T02:11:30.156Z,0
2016-09-22T02:12:30.463Z,0
2016-09-22T02:13:30.159Z,0
2016-09-22T02:14:30.152Z,0
2016-09-22T02:15:30.115Z,0
2016-09-22T02:16:30.107Z,0
2016-09-22T02:17:30.084Z,0
2016-09-22T02:18:30.416Z,0
2016-09-22T02:19:30.053Z,0
2016-09-22T02:20:30.040Z,0
2016-09-22T02:21:30.027Z,0
2016-09-22T02:22:30.021Z,0
2016-09-22T02:23:30.010Z,0
2016-09-22T02:24:30.304Z,0
2016-09-22T02:25:29.984Z,0
2016-09-22T02:26:30.605Z,0
2016-09-22T02:27:29.956Z,0
2016-09-22T02:28:29.943Z,0
2016-09-22T02:29:29.952Z,0
2016-09-22T02:30:29.923Z,0
2016-09-22T02:31:29.911Z,0
2016-09-22T02:32:30.214Z,0
2016-09-22T02:33:30.517Z,0
2016-09-22T02:34:29.876Z,0
2016-09-22T02:35:30.172Z,0
2016-09-22T02:36:29.850Z,0
2016-09-22T02:37:30.153Z,0
2016-09-22T02:38:30.345Z,0
2016-09-22T02:39:29.811Z,0
2016-09-22T02:40:29.802Z,0
2016-09-22T02:41:29.791Z,0
2016-09-22T02:42:30.093Z,0
2016-09-22T02:43:29.762Z,0
2016-09-22T02:44:29.780Z,0
2016-09-22T02:45:30.072Z,0
2016-09-22T02:46:29.730Z,0
2016-09-22T02:47:29.718Z,0
2016-09-22T02:48:29.719Z,0
2016-09-22T02:49:29.710Z,0
2016-09-22T02:50:29.684Z,0
2016-09-22T02:51:29.673Z,0
2016-09-22T02:52:29.673Z,0
2016-09-22T02:53:29.638Z,0
2016-09-22T02:54:29.641Z,0
2016-09-22T02:55:29.626Z,0
2016-09-22T02:56:29.619Z,0
2016-09-22T02:57:29.910Z,0
2016-09-22T02:58:29.583Z,0
2016-09-22T02:59:29.891Z,0
2016-09-22T03:00:29.873Z,0
2016-09-22T03:01:29.561Z,0
2016-09-22T03:02:29.533Z,0
2016-09-22T03:03:29.535Z,0
2016-09-22T03:04:29.517Z,0
2016-09-22T03:05:29.809Z,0
2016-09-22T03:06:29.797Z,0
2016-09-22T03:07:30.115Z,0
2016-09-22T03:08:29.512Z,0
2016-09-22T03:09:29.840Z,0
2016-09-22T03:10:30.425Z,0
2016-09-22T03:11:29.743Z,0
2016-09-22T03:12:29.407Z,0
2016-09-22T03:13:29.407Z,0
2016-09-22T03:14:30.031Z,0
2016-09-22T03:15:29.384Z,0
2016-09-22T03:16:29.681Z,0
2016-09-22T03:17:29.363Z,0
2016-09-22T03:18:29.654Z,0
2016-09-22T03:19:29.685Z,0
2016-09-22T03:20:29.316Z,0
2016-09-22T03:21:29.305Z,0
2016-09-22T03:22:29.288Z,0
2016-09-22T03:23:29.289Z,0
2016-09-22T03:24:29.585Z,0
2016-09-22T03:25:29.904Z,0
2016-09-22T03:26:29.241Z,0
2016-09-22T03:27:29.552Z,0
2016-09-22T03:28:29.544Z,0
2016-09-22T03:29:29.211Z,0
2016-09-22T03:30:29.506Z,0
2016-09-22T03:31:29.180Z,0
2016-09-22T03:32:29.487Z,0
2016-09-22T03:33:29.782Z,0
2016-09-22T03:34:29.153Z,0
2016-09-22T03:35:29.130Z,0
2016-09-22T03:36:29.128Z,0
2016-09-22T03:37:29.112Z,0
2016-09-22T03:38:29.091Z,0
2016-09-22T03:39:29.101Z,0
2016-09-22T03:40:29.065Z,0
2016-09-22T03:41:29.058Z,0
2016-09-22T03:42:29.043Z,0
2016-09-22T03:43:29.339Z,0
2016-09-22T03:44:29.328Z,0
2016-09-22T03:45:29.318Z,0
2016-09-22T03:46:28.997Z,0
2016-09-22T03:47:28.981Z,0
2016-09-22T03:48:28.968Z,0
2016-09-22T03:49:28.960Z,0
2016-09-22T03:50:28.942Z,0
2016-09-22T03:51:29.245Z,0
2016-09-22T03:52:29.239Z,0
2016-09-22T03:53:28.907Z,0
2016-09-22T03:54:29.210Z,0
2016-09-22T03:55:29.192Z,0
2016-09-22T03:56:28.879Z,0
2016-09-22T03:57:28.856Z,0
2016-09-22T03:58:28.858Z,0
2016-09-22T03:59:28.858Z,0
2016-09-22T04:00:28.815Z,0
2016-09-22T04:01:29.117Z,0
2016-09-22T04:02:28.791Z,0
2016-09-22T04:03:28.784Z,0
2016-09-22T04:04:28.768Z,0
2016-09-22T04:05:28.761Z,0
2016-09-22T04:06:28.742Z,0
2016-09-22T04:07:28.727Z,0
2016-09-22T04:08:29.343Z,0
2016-09-22T04:09:29.021Z,0
2016-09-22T04:10:28.713Z,0
2016-09-22T04:11:28.992Z,0
2016-09-22T04:12:28.991Z,0
2016-09-22T04:13:28.972Z,0
2016-09-22T04:14:28.637Z,0
2016-09-22T04:15:28.626Z,0
2016-09-22T04:16:28.612Z,0
2016-09-22T04:17:28.599Z,0
2016-09-22T04:18:28.902Z,0
2016-09-22T04:19:28.575Z,0
2016-09-22T04:20:28.562Z,0
2016-09-22T04:21:28.550Z,0
2016-09-22T04:22:28.544Z,0
2016-09-22T04:23:28.556Z,0
2016-09-22T04:24:28.538Z,0
2016-09-22T04:25:28.832Z,0
2016-09-22T04:26:28.487Z,0
2016-09-22T04:27:29.111Z,0
2016-09-22T04:28:29.085Z,0
2016-09-22T04:29:28.446Z,0
2016-09-22T04:30:28.438Z,0
2016-09-22T04:31:28.424Z,0
2016-09-22T04:32:28.726Z,0
2016-09-22T04:33:28.394Z,0
2016-09-22T04:34:28.379Z,0
2016-09-22T04:35:28.421Z,0
2016-09-22T04:36:28.670Z,0
2016-09-22T04:37:28.353Z,0
2016-09-22T04:38:28.532Z,0
2016-09-22T04:39:28.313Z,0
2016-09-22T04:40:28.305Z,0
2016-09-22T04:41:28.296Z,0
2016-09-22T04:42:28.597Z,0
2016-09-22T04:43:28.265Z,0
2016-09-22T04:44:28.253Z,0
2016-09-22T04:45:28.924Z,0
2016-09-22T04:46:28.891Z,0
2016-09-22T04:47:28.864Z,4
2016-09-22T04:48:28.206Z,0
2016-09-22T04:49:28.508Z,0
2016-09-22T04:50:28.178Z,4
2016-09-22T04:51:28.166Z,4
2016-09-22T04:52:28.465Z,4
2016-09-22T04:53:28.766Z,4
2016-09-22T04:54:28.124Z,4
2016-09-22T04:55:28.110Z,8
2016-09-22T04:56:28.100Z,8
2016-09-22T04:57:28.089Z,8
2016-09-22T04:58:28.071Z,12
2016-09-22T04:59:28.065Z,12
2016-09-22T05:00:28.376Z,16
2016-09-22T05:01:28.042Z,16
2016-09-22T05:02:28.033Z,24
2016-09-22T05:03:28.324Z,28
2016-09-22T05:04:27.995Z,32
2016-09-22T05:05:28.632Z,36
2016-09-22T05:06:27.976Z,44
2016-09-22T05:07:27.973Z,48
2016-09-22T05:08:27.947Z,56
2016-09-22T05:09:27.932Z,60
2016-09-22T05:10:27.920Z,68
2016-09-22T05:11:27.903Z,76
2016-09-22T05:12:27.896Z,84
2016-09-22T05:13:27.882Z,88
2016-09-22T05:14:28.496Z,96
2016-09-22T05:15:27.855Z,104
2016-09-22T05:16:27.851Z,116
2016-09-22T05:17:27.830Z,124
2016-09-22T05:18:27.850Z,128
2016-09-22T05:19:27.825Z,136
2016-09-22T05:20:28.439Z,144
2016-09-22T05:21:27.794Z,156
2016-09-22T05:22:27.798Z,172
2016-09-22T05:23:28.378Z,180
2016-09-22T05:24:27.746Z,196
2016-09-22T05:25:28.044Z,208
2016-09-22T05:26:28.039Z,228
2016-09-22T05:27:27.703Z,244
2016-09-22T05:28:27.693Z,260
2016-09-22T05:29:27.675Z,276
2016-09-22T05:30:27.659Z,292
2016-09-22T05:31:27.650Z,312
2016-09-22T05:32:27.956Z,332
2016-09-22T05:33:27.623Z,344
2016-09-22T05:34:27.627Z,360
2016-09-22T05:35:27.599Z,368
2016-09-22T05:36:27.599Z,372
2016-09-22T05:37:27.575Z,384
2016-09-22T05:38:27.562Z,396
2016-09-22T05:39:27.865Z,408
2016-09-22T05:40:27.534Z,420
2016-09-22T05:41:27.839Z,436
2016-09-22T05:42:27.823Z,448
2016-09-22T05:43:27.501Z,464
2016-09-22T05:44:27.483Z,480
2016-09-22T05:45:27.469Z,496
2016-09-22T05:46:27.465Z,508
2016-09-22T05:47:27.448Z,524
2016-09-22T05:48:27.434Z,536
2016-09-22T05:49:27.426Z,552
2016-09-22T05:50:27.423Z,564
2016-09-22T05:51:27.708Z,580
2016-09-22T05:52:27.386Z,596
2016-09-22T05:53:27.366Z,616
2016-09-22T05:54:27.366Z,632
2016-09-22T05:55:27.662Z,652
2016-09-22T05:56:27.335Z,668
2016-09-22T05:57:27.321Z,692
2016-09-22T05:58:27.312Z,712
2016-09-22T05:59:27.613Z,740
2016-09-22T06:00:27.281Z,764
2016-09-22T06:01:27.268Z,792
2016-09-22T06:02:27.247Z,820
2016-09-22T06:03:27.456Z,844
2016-09-22T06:04:27.867Z,860
2016-09-22T06:05:27.225Z,872
2016-09-22T06:06:27.202Z,888
2016-09-22T06:07:27.500Z,912
2016-09-22T06:08:27.806Z,940
2016-09-22T06:09:27.478Z,968
2016-09-22T06:10:27.150Z,996
2016-09-22T06:11:27.135Z,1012
2016-09-22T06:12:27.132Z,1028
2016-09-22T06:13:27.432Z,1036
2016-09-22T06:14:27.101Z,1044
2016-09-22T06:15:27.095Z,1044
2016-09-22T06:16:27.080Z,1036
2016-09-22T06:17:27.372Z,1040
2016-09-22T06:18:27.366Z,1096
2016-09-22T06:19:27.042Z,1184
2016-09-22T06:20:27.060Z,1244
2016-09-22T06:21:27.342Z,1300
2016-09-22T06:22:27.330Z,1336
2016-09-22T06:23:26.991Z,1356
2016-09-22T06:24:27.282Z,1376
2016-09-22T06:25:26.973Z,1372
2016-09-22T06:26:26.948Z,1352
2016-09-22T06:27:27.262Z,1320
2016-09-22T06:28:27.242Z,1268
2016-09-22T06:29:26.912Z,1260
2016-09-22T06:30:27.834Z,1264
2016-09-22T06:31:26.886Z,1284
2016-09-22T06:32:26.873Z,1324
2016-09-22T06:33:26.866Z,1388
2016-09-22T06:34:26.854Z,1464
2016-09-22T06:35:26.842Z,1508
2016-09-22T06:36:26.828Z,1548
2016-09-22T06:37:27.125Z,1572
2016-09-22T06:38:27.011Z,1604
2016-09-22T06:39:26.807Z,1636
2016-09-22T06:40:27.420Z,1648
2016-09-22T06:41:27.082Z,1668
2016-09-22T06:42:27.116Z,1688
2016-09-22T06:43:26.735Z,1724
2016-09-22T06:44:27.041Z,1748
2016-09-22T06:45:27.032Z,1768
2016-09-22T06:46:26.701Z,1776
2016-09-22T06:47:26.686Z,1796
2016-09-22T06:48:26.691Z,1844
2016-09-22T06:49:26.678Z,1904
2016-09-22T06:50:26.647Z,1936
2016-09-22T06:51:27.013Z,1972
2016-09-22T06:52:26.627Z,2000
2016-09-22T06:53:26.623Z,2020
2016-09-22T06:54:26.611Z,2036
2016-09-22T06:55:26.632Z,2056
2016-09-22T06:56:26.910Z,2068
2016-09-22T06:57:27.194Z,2088
2016-09-22T06:58:26.568Z,2104
2016-09-22T06:59:26.546Z,2124
2016-09-22T07:00:26.540Z,2144
2016-09-22T07:01:26.521Z,2160
2016-09-22T07:02:26.833Z,2180
2016-09-22T07:03:26.831Z,2204
2016-09-22T07:04:26.487Z,2220
2016-09-22T07:05:26.789Z,2244
2016-09-22T07:06:26.472Z,2264
2016-09-22T07:07:26.452Z,2276
2016-09-22T07:08:26.765Z,2292
2016-09-22T07:09:26.439Z,2312
2016-09-22T07:10:26.420Z,2332
2016-09-22T07:11:26.417Z,2356
2016-09-22T07:12:26.390Z,2376
2016-09-22T07:13:26.382Z,2396
2016-09-22T07:14:26.372Z,2416
2016-09-22T07:15:26.363Z,2440
2016-09-22T07:16:26.345Z,2464
2016-09-22T07:17:26.333Z,2488
2016-09-22T07:18:26.641Z,2520
2016-09-22T07:19:26.625Z,2548
2016-09-22T07:20:26.298Z,2576
2016-09-22T07:21:26.294Z,2596
2016-09-22T07:22:26.281Z,2620
2016-09-22T07:23:26.274Z,2644
2016-09-22T07:24:26.256Z,2664
2016-09-22T07:25:26.245Z,2676
2016-09-22T07:26:26.230Z,2696
2016-09-22T07:27:26.232Z,2712
2016-09-22T07:28:26.219Z,2732
2016-09-22T07:29:26.512Z,2744
2016-09-22T07:30:26.191Z,2764
2016-09-22T07:31:26.173Z,2776
2016-09-22T07:32:26.168Z,2780
2016-09-22T07:33:26.159Z,2788
2016-09-22T07:34:26.141Z,2792
2016-09-22T07:35:26.449Z,2800
2016-09-22T07:36:26.435Z,2812
2016-09-22T07:37:26.752Z,2824
2016-09-22T07:38:26.105Z,2840
2016-09-22T07:39:26.095Z,2852
2016-09-22T07:40:26.394Z,2872
2016-09-22T07:41:26.102Z,2892
2016-09-22T07:42:26.059Z,2912
2016-09-22T07:43:26.364Z,2936
2016-09-22T07:44:26.035Z,2960
2016-09-22T07:45:26.339Z,2984
2016-09-22T07:46:26.045Z,3012
2016-09-22T07:47:26.061Z,3052
2016-09-22T07:48:26.002Z,3084
2016-09-22T07:49:26.309Z,3100
2016-09-22T07:50:26.298Z,3116
2016-09-22T07:51:25.973Z,3148
2016-09-22T07:52:25.949Z,3180
2016-09-22T07:53:26.253Z,3212
2016-09-22T07:54:26.246Z,3252
2016-09-22T07:55:25.925Z,3296
2016-09-22T07:56:25.911Z,3348
2016-09-22T07:57:26.528Z,3420
2016-09-22T07:58:25.892Z,3468
2016-09-22T07:59:25.885Z,3508
2016-09-22T08:00:25.879Z,3532
2016-09-22T08:01:26.177Z,3560
2016-09-22T08:02:25.860Z,3588
2016-09-22T08:03:25.840Z,3612
2016-09-22T08:04:25.834Z,3660
2016-09-22T08:05:25.822Z,3848
2016-09-22T08:06:25.813Z,3952
2016-09-22T08:07:25.804Z,4408
2016-09-22T08:08:25.789Z,4084
2016-09-22T08:09:25.788Z,4656
2016-09-22T08:10:26.403Z,3824
2016-09-22T08:11:25.768Z,3816
2016-09-22T08:12:26.076Z,3884
2016-09-22T08:13:25.754Z,3808
2016-09-22T08:14:25.732Z,3844
2016-09-22T08:15:25.728Z,3932
2016-09-22T08:16:25.723Z,4020
2016-09-22T08:17:25.713Z,3992
2016-09-22T08:18:25.704Z,3948
2016-09-22T08:19:25.700Z,3900
2016-09-22T08:20:25.701Z,3812
2016-09-22T08:21:25.683Z,3932
2016-09-22T08:22:25.984Z,3824
2016-09-22T08:23:25.662Z,3836
2016-09-22T08:24:25.653Z,3872
2016-09-22T08:25:25.962Z,3896
2016-09-22T08:26:25.633Z,4756
2016-09-22T08:27:25.633Z,6348
2016-09-22T08:28:25.614Z,5356
2016-09-22T08:29:25.609Z,4724
2016-09-22T08:30:25.602Z,4060
2016-09-22T08:31:25.903Z,4152
2016-09-22T08:32:25.581Z,4052
2016-09-22T08:33:25.884Z,4232
2016-09-22T08:34:25.880Z,4232
2016-09-22T08:35:25.558Z,4124
2016-09-22T08:36:25.552Z,4124
2016-09-22T08:37:26.175Z,4112
2016-09-22T08:38:25.941Z,4132
2016-09-22T08:39:25.519Z,4176
2016-09-22T08:40:25.827Z,4256
2016-09-22T08:41:25.525Z,4372
2016-09-22T08:42:25.510Z,4340
2016-09-22T08:43:25.493Z,4320
2016-09-22T08:44:25.485Z,4360
2016-09-22T08:45:25.675Z,4464
2016-09-22T08:46:25.784Z,4600
2016-09-22T08:47:25.455Z,4648
2016-09-22T08:48:25.453Z,4696
2016-09-22T08:49:25.445Z,4764
2016-09-22T08:50:25.445Z,4904
2016-09-22T08:51:25.741Z,5076
2016-09-22T08:52:25.422Z,5712
2016-09-22T08:53:25.739Z,5076
2016-09-22T08:54:25.447Z,5104
2016-09-22T08:55:25.398Z,4996
2016-09-22T08:56:25.383Z,4836
2016-09-22T08:57:25.389Z,4828
2016-09-22T08:58:25.369Z,4872
2016-09-22T08:59:25.364Z,4908
2016-09-22T09:00:25.356Z,4912
2016-09-22T09:01:25.350Z,5004
2016-09-22T09:02:25.336Z,4996
2016-09-22T09:03:25.324Z,5052
2016-09-22T09:04:25.327Z,5080
2016-09-22T09:05:25.314Z,5104
2016-09-22T09:06:25.619Z,5104
2016-09-22T09:07:25.306Z,5036
2016-09-22T09:08:25.290Z,4864
2016-09-22T09:09:25.281Z,4628
2016-09-22T09:10:25.277Z,4440
2016-09-22T09:11:25.260Z,4524
2016-09-22T09:12:25.259Z,4636
2016-09-22T09:13:25.558Z,4616
2016-09-22T09:14:25.555Z,4556
2016-09-22T09:15:25.236Z,4792
2016-09-22T09:16:25.221Z,4956
2016-09-22T09:17:25.235Z,5032
2016-09-22T09:18:25.523Z,5104
2016-09-22T09:19:25.202Z,5200
2016-09-22T09:20:25.207Z,5272
2016-09-22T09:21:25.195Z,5292
2016-09-22T09:22:25.496Z,5348
2016-09-22T09:23:25.487Z,5428
2016-09-22T09:24:25.169Z,5476
2016-09-22T09:25:25.475Z,5484
2016-09-22T09:26:25.157Z,5468
2016-09-22T09:27:25.459Z,5452
2016-09-22T09:28:25.135Z,5428
2016-09-22T09:29:25.132Z,5620
2016-09-22T09:30:25.752Z,5400
2016-09-22T09:31:25.131Z,5224
2016-09-22T09:32:25.106Z,5216
2016-09-22T09:33:25.211Z,5296
2016-09-22T09:34:25.093Z,5304
2016-09-22T09:35:25.414Z,5276
2016-09-22T09:36:25.399Z,5308
2016-09-22T09:37:25.068Z,5380
2016-09-22T09:38:25.375Z,5928
2016-09-22T09:39:25.373Z,5600
2016-09-22T09:40:25.053Z,5816
2016-09-22T09:41:25.045Z,6104
2016-09-22T09:42:25.040Z,5952
2016-09-22T09:43:25.031Z,6092
2016-09-22T09:44:25.017Z,6168
2016-09-22T09:45:25.019Z,6216
2016-09-22T09:46:25.334Z,6280
2016-09-22T09:47:24.993Z,6124
2016-09-22T09:48:24.991Z,5936
2016-09-22T09:49:24.984Z,5788
2016-09-22T09:50:24.985Z,5780
2016-09-22T09:51:24.968Z,5768
2016-09-22T09:52:24.966Z,6916
2016-09-22T09:53:24.956Z,7740
2016-09-22T09:54:24.948Z,8992
2016-09-22T09:55:24.945Z,7004
2016-09-22T09:56:24.931Z,7328
2016-09-22T09:57:24.931Z,7056
2016-09-22T09:58:25.236Z,6956
2016-09-22T09:59:24.918Z,7196
2016-09-22T10:00:24.908Z,6828
2016-09-22T10:01:24.898Z,6780
2016-09-22T10:02:24.899Z,6860
2016-09-22T10:03:24.889Z,6936
2016-09-22T10:04:24.885Z,6920
2016-09-22T10:05:25.201Z,6964
2016-09-22T10:06:24.875Z,7088
2016-09-22T10:07:24.861Z,7260
2016-09-22T10:08:25.276Z,7488
2016-09-22T10:09:24.854Z,8260
2016-09-22T10:10:24.850Z,7892
2016-09-22T10:11:24.841Z,8144
2016-09-22T10:12:24.847Z,8232
2016-09-22T10:13:25.454Z,8428
2016-09-22T10:14:24.825Z,8996
2016-09-22T10:15:24.817Z,8960
2016-09-22T10:16:24.848Z,11508
2016-09-22T10:17:24.803Z,9804
2016-09-22T10:18:25.143Z,8796
2016-09-22T10:19:25.102Z,9160
2016-09-22T10:20:24.779Z,9360
2016-09-22T10:21:24.772Z,10912
2016-09-22T10:22:24.768Z,10816
2016-09-22T10:23:24.762Z,10616
2016-09-22T10:24:25.090Z,10472
2016-09-22T10:25:25.063Z,12460
2016-09-22T10:26:24.743Z,11124
2016-09-22T10:27:25.069Z,11000
2016-09-22T10:28:24.738Z,10664
2016-09-22T10:29:24.727Z,10956
2016-09-22T10:30:24.725Z,11600
2016-09-22T10:31:24.720Z,11668
2016-09-22T10:32:24.710Z,11552
2016-09-22T10:33:24.703Z,12360
2016-09-22T10:34:24.700Z,12632
2016-09-22T10:35:25.333Z,13012
2016-09-22T10:36:25.033Z,13968
2016-09-22T10:37:24.993Z,13276
2016-09-22T10:38:24.679Z,18272
2016-09-22T10:39:24.664Z,15384
2016-09-22T10:40:24.680Z,23008
2016-09-22T10:41:24.994Z,14100
2016-09-22T10:42:24.661Z,20128
2016-09-22T10:43:24.970Z,20192
2016-09-22T10:44:25.276Z,21952
2016-09-22T10:45:24.660Z,16116
2016-09-22T10:46:24.635Z,15664
2016-09-22T10:47:25.153Z,15316
2016-09-22T10:48:24.945Z,14996
2016-09-22T10:49:24.634Z,13988
2016-09-22T10:50:24.938Z,14968
2016-09-22T10:51:25.239Z,14508
2016-09-22T10:52:24.626Z,16144
2016-09-22T10:53:24.618Z,17344
2016-09-22T10:54:24.644Z,22592
2016-09-22T10:55:24.595Z,31552
2016-09-22T10:56:24.793Z,30208
2016-09-22T10:57:24.902Z,25632
2016-09-22T10:58:24.575Z,20064
2016-09-22T10:59:24.887Z,20864
2016-09-22T11:00:25.200Z,17600
2016-09-22T11:01:24.896Z,16864
2016-09-22T11:02:25.094Z,17440
2016-09-22T11:03:24.575Z,14156
2016-09-22T11:04:25.192Z,14852
2016-09-22T11:05:24.857Z,15496
2016-09-22T11:06:24.862Z,17440
2016-09-22T11:07:24.734Z,18496
2016-09-22T11:08:24.537Z,16244
2016-09-22T11:09:24.918Z,16636
2016-09-22T11:10:25.482Z,18176
2016-09-22T11:11:24.506Z,18080
2016-09-22T11:12:24.543Z,17376
2016-09-22T11:13:24.528Z,17440
2016-09-22T11:14:24.521Z,14648
2016-09-22T11:15:24.500Z,18144
2016-09-22T11:16:24.815Z,18016
2016-09-22T11:17:24.489Z,18048
2016-09-22T11:18:24.819Z,18240
2016-09-22T11:19:24.483Z,20096
2016-09-22T11:20:25.101Z,18720
2016-09-22T11:21:25.102Z,22752
2016-09-22T11:22:24.783Z,22016
2016-09-22T11:23:24.782Z,18976
2016-09-22T11:24:24.456Z,17280
2016-09-22T11:25:24.771Z,19008
2016-09-22T11:26:24.489Z,21312
2016-09-22T11:27:25.097Z,19392
2016-09-22T11:28:25.072Z,18464
2016-09-22T11:29:25.070Z,23744
2016-09-22T11:30:24.697Z,20032
2016-09-22T11:31:24.431Z,22592
2016-09-22T11:32:24.447Z,25472
2016-09-22T11:33:24.742Z,25472
2016-09-22T11:34:24.421Z,60160
2016-09-22T11:35:24.437Z,50272
2016-09-22T11:36:24.975Z,46048
2016-09-22T11:37:24.428Z,35904
2016-09-22T11:38:24.735Z,36832
2016-09-22T11:39:24.403Z,36736
2016-09-22T11:40:24.414Z,41760
2016-09-22T11:41:24.718Z,40000
2016-09-22T11:42:24.424Z,41504
2016-09-22T11:43:24.715Z,35296
2016-09-22T11:44:24.422Z,31040
2016-09-22T11:45:24.402Z,30048
2016-09-22T11:46:25.031Z,27360
2016-09-22T11:47:24.386Z,35872
2016-09-22T11:48:25.022Z,51808
2016-09-22T11:49:24.376Z,49344
2016-09-22T11:50:24.589Z,49248
2016-09-22T11:51:24.373Z,58048
2016-09-22T11:52:24.372Z,56032
2016-09-22T11:53:24.376Z,52256
2016-09-22T11:54:24.682Z,50976
2016-09-22T11:55:24.680Z,46144
2016-09-22T11:56:24.364Z,49568
2016-09-22T11:57:24.353Z,44160
2016-09-22T11:58:24.376Z,50144
2016-09-22T11:59:24.349Z,53152
2016-09-22T12:00:24.350Z,58336
2016-09-22T12:01:24.666Z,56608
2016-09-22T12:02:24.369Z,62912
2016-09-22T12:03:24.669Z,63072
2016-09-22T12:04:25.052Z,56960
2016-09-22T12:05:24.992Z,53952
2016-09-22T12:06:24.339Z,50048
2016-09-22T12:07:24.655Z,50688
2016-09-22T12:08:24.347Z,54080
2016-09-22T12:09:24.336Z,54432
2016-09-22T12:10:24.360Z,52960
2016-09-22T12:11:24.419Z,53056
2016-09-22T12:12:24.681Z,48224
2016-09-22T12:13:24.355Z,49888
2016-09-22T12:14:24.345Z,42944
2016-09-22T12:15:24.342Z,45984
2016-09-22T12:16:24.979Z,51104
2016-09-22T12:17:24.373Z,63200
2016-09-22T12:18:24.649Z,67136
2016-09-22T12:19:24.343Z,56352
2016-09-22T12:20:24.337Z,50880
2016-09-22T12:21:24.340Z,63264
2016-09-22T12:22:24.652Z,63456
2016-09-22T12:23:24.341Z,66912
2016-09-22T12:24:24.341Z,72224
2016-09-22T12:25:24.356Z,70368
2016-09-22T12:26:24.353Z,62496
2016-09-22T12:27:24.351Z,58624
2016-09-22T12:28:24.347Z,59456
2016-09-22T12:29:24.340Z,57824
2016-09-22T12:30:24.344Z,58720
2016-09-22T12:31:24.360Z,55776
2016-09-22T12:32:24.660Z,54656
2016-09-22T12:33:24.365Z,47872
2016-09-22T12:34:24.664Z,42272
2016-09-22T12:35:24.365Z,36064
2016-09-22T12:36:24.366Z,36832
2016-09-22T12:37:24.348Z,40448
2016-09-22T12:38:24.672Z,39008
2016-09-22T12:39:24.609Z,47488
2016-09-22T12:40:24.355Z,45504
2016-09-22T12:41:24.355Z,40704
2016-09-22T12:42:24.352Z,35872
2016-09-22T12:43:24.357Z,30176
2016-09-22T12:44:24.353Z,32864
2016-09-22T12:45:24.358Z,41056
2016-09-22T12:46:24.355Z,43648
2016-09-22T12:47:24.365Z,45024
2016-09-22T12:48:24.681Z,45280
2016-09-22T12:49:24.688Z,50464
2016-09-22T12:50:24.663Z,53920
2016-09-22T12:51:24.353Z,53728
2016-09-22T12:52:24.357Z,49696
2016-09-22T12:53:24.359Z,52384
2016-09-22T12:54:24.673Z,53056
2016-09-22T12:55:24.901Z,52768
2016-09-22T12:56:24.690Z,53120
2016-09-22T12:57:24.694Z,53440
2016-09-22T12:58:24.374Z,56224
2016-09-22T12:59:24.361Z,56928
2016-09-22T13:00:24.670Z,61728
2016-09-22T13:01:25.038Z,56896
2016-09-22T13:02:24.355Z,55072
2016-09-22T13:03:24.357Z,56544
2016-09-22T13:04:24.956Z,56896
2016-09-22T13:05:24.389Z,48000
2016-09-22T13:06:24.361Z,50240
2016-09-22T13:07:24.358Z,45280
2016-09-22T13:08:24.679Z,45856
2016-09-22T13:09:24.673Z,43040
2016-09-22T13:10:24.991Z,41184
2016-09-22T13:11:24.363Z,43136
2016-09-22T13:12:24.365Z,45408
2016-09-22T13:13:24.563Z,49888
2016-09-22T13:14:24.427Z,55840
2016-09-22T13:15:24.360Z,56864
2016-09-22T13:16:24.368Z,55712
2016-09-22T13:17:24.685Z,53088
2016-09-22T13:18:24.669Z,51104
2016-09-22T13:19:24.383Z,49120
2016-09-22T13:20:24.365Z,49344
2016-09-22T13:21:24.363Z,48800
2016-09-22T13:22:24.357Z,50176
2016-09-22T13:23:24.677Z,48864
2016-09-22T13:24:24.358Z,49024
2016-09-22T13:25:24.358Z,42304
2016-09-22T13:26:24.674Z,46240
2016-09-22T13:27:24.362Z,47616
2016-09-22T13:28:24.365Z,47200
2016-09-22T13:29:24.680Z,41120
2016-09-22T13:30:25.001Z,38144
2016-09-22T13:31:24.678Z,35456
2016-09-22T13:32:24.992Z,34912
2016-09-22T13:33:24.682Z,34848
2016-09-22T13:34:24.366Z,33984
2016-09-22T13:35:24.371Z,33760
2016-09-22T13:36:24.995Z,32800
2016-09-22T13:37:24.389Z,30368
2016-09-22T13:38:24.683Z,32032
2016-09-22T13:39:24.384Z,33856
2016-09-22T13:40:24.373Z,33760
2016-09-22T13:41:24.375Z,34784
2016-09-22T13:42:24.681Z,32096
2016-09-22T13:43:24.686Z,28032
2016-09-22T13:44:24.374Z,27328